Time;durP1;ratioP1;P1;durP2;ratioP2;P2;SDS_P1;SDS_P2;PMS_P1;PMS_P2;Temp;Humidity;BMP_temperature;BMP_pressure;BME280_temperature;BME280_humidity;BME280_pressure;Samples;Min_cycle;Max_cycle;Signal;HPM_P1;HPM_P2
2022/02/17 00:00:06;;;;;;;0.52;0.10;;;;;;;11.31;74.05;96138.97;5078496;28;20086;-63
2022/02/17 00:02:41;;;;;;;0.00;0.00;;;;;;;11.32;73.93;96121.63;5080733;28;20094;-62
2022/02/17 00:05:09;;;;;;;0.32;0.10;;;;;;;11.25;74.55;96137.44;5085071;28;20048;-63
2022/02/17 00:07:37;;;;;;;0.10;0.05;;;;;;;11.22;75.05;96145.31;5077513;28;20048;-63
2022/02/17 00:10:05;;;;;;;0.90;0.20;;;;;;;11.26;74.76;96130.91;5066432;28;20040;-63
2022/02/17 00:12:32;;;;;;;0.50;0.20;;;;;;;11.21;75.57;96130.16;5074146;28;20047;-64
2022/02/17 00:14:59;;;;;;;0.63;0.30;;;;;;;11.18;75.95;96116.06;5086057;28;20047;-64
2022/02/17 00:17:25;;;;;;;0.00;0.00;;;;;;;11.16;76.36;96114.75;5084291;28;20032;-62
2022/02/17 00:19:52;;;;;;;0.13;0.03;;;;;;;11.10;76.34;96096.94;5085120;28;20528;-64
2022/02/17 00:22:19;;;;;;;0.00;0.00;;;;;;;11.01;77.04;96105.69;5085807;28;20086;-64
2022/02/17 00:24:45;;;;;;;0.10;0.10;;;;;;;10.92;77.62;96093.88;5085228;28;20055;-62
2022/02/17 00:27:12;;;;;;;0.00;0.00;;;;;;;10.85;78.30;96087.97;5079561;28;20036;-63
2022/02/17 00:29:39;;;;;;;0.00;0.00;;;;;;;10.77;79.00;96073.94;5086173;28;20046;-63
2022/02/17 00:32:06;;;;;;;0.13;0.10;;;;;;;10.68;79.63;96108.16;5083175;28;20046;-62
2022/02/17 00:34:33;;;;;;;0.32;0.10;;;;;;;10.59;80.35;96088.19;5084355;28;20520;-64
2022/02/17 00:37:02;;;;;;;0.30;0.10;;;;;;;10.52;81.11;96099.34;5085666;28;20048;-62
2022/02/17 00:39:33;;;;;;;0.10;0.10;;;;;;;10.49;81.46;96091.78;5068777;28;20292;-63
2022/02/17 00:42:01;;;;;;;0.00;0.00;;;;;;;10.48;81.79;96099.13;5086374;28;20055;-63
2022/02/17 00:44:27;;;;;;;0.00;0.00;;;;;;;10.36;82.23;96118.38;5084038;28;20526;-63
2022/02/17 00:46:55;;;;;;;0.03;0.03;;;;;;;10.33;82.92;96123.56;5086158;28;20048;-62
2022/02/17 00:49:28;;;;;;;0.17;0.00;;;;;;;10.21;84.03;96129.31;5084222;28;20044;-62
2022/02/17 00:51:55;;;;;;;0.30;0.10;;;;;;;10.19;84.51;96129.59;5091249;28;20438;-62
2022/02/17 00:54:23;;;;;;;0.00;0.00;;;;;;;10.07;85.12;96110.19;5069616;28;20045;-63
2022/02/17 00:56:51;;;;;;;0.28;0.00;;;;;;;9.91;86.49;96106.78;5081179;28;20036;-63
2022/02/17 00:59:19;;;;;;;0.50;0.05;;;;;;;9.83;87.28;96059.47;5083855;28;20456;-62
2022/02/17 01:01:47;;;;;;;0.10;0.10;;;;;;;9.76;88.40;96074.13;5074848;28;20519;-63
2022/02/17 01:04:17;;;;;;;1.10;0.20;;;;;;;9.65;88.86;96058.25;5085553;28;20043;-63
2022/02/17 01:06:45;;;;;;;0.80;0.20;;;;;;;9.64;89.04;96084.47;5080868;28;20050;-64
2022/02/17 01:09:13;;;;;;;0.10;0.10;;;;;;;9.54;89.17;96098.81;5064305;28;20079;-63
2022/02/17 01:11:40;;;;;;;0.03;0.03;;;;;;;9.58;89.03;96116.09;5083593;28;20054;-63
2022/02/17 01:14:08;;;;;;;0.43;0.17;;;;;;;9.56;89.21;96103.94;5086034;28;20040;-63
2022/02/17 01:16:36;;;;;;;0.10;0.10;;;;;;;9.51;89.22;96112.88;5072281;28;20542;-63
2022/02/17 01:19:12;;;;;;;0.10;0.10;;;;;;;9.57;88.66;96102.84;5081968;28;20542;-62
2022/02/17 01:21:43;;;;;;;6.15;0.15;;;;;;;9.56;88.79;96090.44;5064637;28;20071;-62
2022/02/17 01:24:10;;;;;;;0.10;0.10;;;;;;;9.63;88.24;96083.63;5079021;28;20037;-62
2022/02/17 01:26:39;;;;;;;0.00;0.00;;;;;;;9.55;88.55;96073.41;5081791;28;20044;-62
2022/02/17 01:29:11;;;;;;;0.00;0.00;;;;;;;9.61;87.95;96090.41;5075894;28;20419;-62
2022/02/17 01:31:37;;;;;;;0.28;0.10;;;;;;;9.58;88.65;96089.06;5079773;28;20036;-62
2022/02/17 01:34:10;;;;;;;0.05;0.03;;;;;;;9.55;88.46;96081.50;5084385;28;20133;-62
2022/02/17 01:36:41;;;;;;;0.00;0.00;;;;;;;9.63;88.45;96085.56;5072219;28;20131;-63
2022/02/17 01:39:08;;;;;;;0.35;0.10;;;;;;;9.63;87.90;96099.84;5070414;28;20062;-63
2022/02/17 01:41:37;;;;;;;0.10;0.05;;;;;;;9.62;88.08;96089.34;5064072;28;20090;-63
2022/02/17 01:44:09;;;;;;;0.30;0.20;;;;;;;9.54;89.07;96092.63;5079852;28;20047;-63
2022/02/17 01:46:39;;;;;;;0.63;0.10;;;;;;;9.45;89.40;96093.19;5084056;28;20704;-62
2022/02/17 01:49:08;;;;;;;0.00;0.00;;;;;;;9.50;89.84;96079.66;5083635;28;20040;-63
2022/02/17 01:51:37;;;;;;;0.20;0.10;;;;;;;9.44;89.92;96086.16;5074158;28;20046;-62
2022/02/17 01:54:05;;;;;;;0.10;0.10;;;;;;;9.41;89.99;96089.44;5083134;28;20526;-62
2022/02/17 01:56:35;;;;;;;0.35;0.15;;;;;;;9.42;89.53;96107.25;5083000;28;20040;-63
2022/02/17 01:59:09;;;;;;;0.65;0.20;;;;;;;9.37;90.04;96093.75;5084471;28;20489;-63
2022/02/17 02:01:44;;;;;;;0.65;0.20;;;;;;;9.34;90.17;96097.00;5081840;28;20054;-62
2022/02/17 02:04:11;;;;;;;0.20;0.10;;;;;;;9.35;90.62;96094.03;5066215;28;20127;-63
2022/02/17 02:06:37;;;;;;;1.02;0.20;;;;;;;9.34;90.83;96091.59;5083150;28;20156;-63
2022/02/17 02:09:07;;;;;;;0.32;0.10;;;;;;;9.34;90.99;96091.59;5063646;28;20136;-63
2022/02/17 02:11:56;;;;;;;0.03;0.03;;;;;;;9.32;90.69;96089.19;5073033;28;21208;-62
2022/02/17 02:14:23;;;;;;;2.08;0.20;;;;;;;9.31;90.97;96084.88;5084896;28;20040;-62
2022/02/17 02:16:52;;;;;;;0.10;0.10;;;;;;;9.31;91.12;96090.28;5083847;28;20074;-64
2022/02/17 02:19:21;;;;;;;0.28;0.10;;;;;;;9.35;91.32;96107.53;5076310;28;20044;-63
2022/02/17 02:21:53;;;;;;;0.10;0.10;;;;;;;9.31;91.32;96092.16;5087099;28;20109;-61
2022/02/17 02:24:19;;;;;;;0.60;0.10;;;;;;;9.31;91.38;96086.75;5083962;28;20415;-62
2022/02/17 02:26:48;;;;;;;0.25;0.10;;;;;;;9.22;91.41;96081.91;5087033;28;20085;-62
2022/02/17 02:29:21;;;;;;;0.77;0.20;;;;;;;9.18;92.09;96071.94;5068245;28;20728;-61
2022/02/17 02:31:48;;;;;;;1.00;0.20;;;;;;;9.22;92.31;96089.22;5078580;28;20043;-62
2022/02/17 02:34:15;;;;;;;0.52;0.10;;;;;;;9.14;92.29;96087.09;5068148;28;20093;-62
2022/02/17 02:36:41;;;;;;;0.22;0.17;;;;;;;9.24;92.65;96089.75;5095336;28;20130;-63
2022/02/17 02:39:08;;;;;;;0.75;0.20;;;;;;;9.11;92.71;96077.66;5072171;28;20044;-62
2022/02/17 02:41:44;;;;;;;0.60;0.10;;;;;;;9.04;93.08;96064.44;5067023;28;20044;-63
2022/02/17 02:44:11;;;;;;;0.10;0.10;;;;;;;9.04;93.40;96060.91;5084281;28;20053;-64
2022/02/17 02:46:44;;;;;;;0.20;0.10;;;;;;;9.02;93.45;96058.47;5080943;28;20049;-62
2022/02/17 02:49:11;;;;;;;0.08;0.08;;;;;;;9.02;93.63;96049.56;5068148;28;20119;-63
2022/02/17 02:51:37;;;;;;;0.10;0.10;;;;;;;9.15;92.97;96053.59;5072376;28;20042;-62
2022/02/17 02:54:04;;;;;;;0.10;0.10;;;;;;;9.11;93.08;96053.34;5067826;28;20403;-62
2022/02/17 02:56:36;;;;;;;;;;;;;;;9.13;92.81;96059.25;5077259;28;20100;-63
2022/02/17 02:59:03;;;;;;;0.20;0.10;;;;;;;9.17;92.56;96057.63;5066923;28;20367;-63
2022/02/17 03:01:31;;;;;;;0.00;0.00;;;;;;;9.17;92.96;96057.63;5077559;28;20086;-62
2022/02/17 03:03:59;;;;;;;0.15;0.10;;;;;;;9.21;92.37;96036.28;5079504;28;20430;-62
2022/02/17 03:06:32;;;;;;;0.10;0.10;;;;;;;9.21;92.71;96047.88;5085925;28;20036;-62
2022/02/17 03:08:59;;;;;;;0.40;0.10;;;;;;;9.26;92.45;96052.47;5086174;28;20404;-63
2022/02/17 03:11:28;;;;;;;1.38;0.35;;;;;;;9.27;92.38;96051.38;5087306;28;20298;-63
2022/02/17 03:13:55;;;;;;;0.38;0.10;;;;;;;9.30;92.19;96031.94;5085930;28;20558;-61
2022/02/17 03:16:23;;;;;;;0.32;0.10;;;;;;;9.37;91.96;96034.34;5069209;28;20044;-61
2022/02/17 03:18:54;;;;;;;0.10;0.10;;;;;;;9.37;91.70;96032.41;5086157;28;20109;-61
2022/02/17 03:21:21;;;;;;;0.22;0.15;;;;;;;9.40;91.71;96055.38;5088248;28;20050;-63
2022/02/17 03:23:48;;;;;;;0.28;0.10;;;;;;;9.47;91.26;96045.09;5076052;28;20568;-63
2022/02/17 03:26:19;;;;;;;0.00;0.00;;;;;;;9.50;90.45;96039.13;5080372;28;20570;-62
2022/02/17 03:28:53;;;;;;;1.02;0.10;;;;;;;9.53;90.39;96021.56;5074504;28;20725;-62
2022/02/17 03:31:19;;;;;;;0.57;0.15;;;;;;;9.66;89.45;96032.84;5074120;28;20507;-63
2022/02/17 03:33:56;;;;;;;0.00;0.00;;;;;;;9.74;88.68;96046.56;5074936;28;20051;-64
2022/02/17 03:36:25;;;;;;;0.10;0.10;;;;;;;9.83;88.14;96045.97;5065838;28;20040;-62
2022/02/17 03:38:58;;;;;;;0.20;0.20;;;;;;;9.88;88.39;96043.25;5076025;28;20079;-63
2022/02/17 03:41:48;;;;;;;0.00;0.00;;;;;;;10.09;86.60;96037.69;5086641;28;20055;-63
2022/02/17 03:44:16;;;;;;;0.30;0.10;;;;;;;10.28;85.02;96035.91;5071750;28;20049;-63
2022/02/17 03:46:46;;;;;;;0.10;0.10;;;;;;;10.38;84.09;96056.69;5065704;28;20106;-63
2022/02/17 03:49:14;;;;;;;0.57;0.10;;;;;;;10.38;84.82;96067.50;5084201;28;20044;-63
2022/02/17 03:51:40;;;;;;;0.00;0.00;;;;;;;10.54;83.16;96038.44;5089952;28;20067;-63
2022/02/17 03:54:07;;;;;;;0.00;0.00;;;;;;;10.53;82.42;96031.41;5082741;28;20097;-64
2022/02/17 03:56:41;;;;;;;0.00;0.00;;;;;;;10.58;82.38;96021.63;5069480;28;20640;-63
2022/02/17 03:59:37;;;;;;;0.00;0.00;;;;;;;10.57;82.02;96006.50;5085981;28;20054;-63
2022/02/17 04:02:04;;;;;;;0.00;0.00;;;;;;;10.63;82.00;96051.34;5082022;28;20051;-62
2022/02/17 04:04:31;;;;;;;0.00;0.00;;;;;;;10.60;82.51;96054.63;5085535;28;20068;-63
2022/02/17 04:06:57;;;;;;;0.00;0.00;;;;;;;10.68;81.63;96055.94;5083965;28;20071;-64
2022/02/17 04:09:24;;;;;;;0.65;0.10;;;;;;;10.72;80.83;96068.59;5084597;28;20036;-62
2022/02/17 04:11:51;;;;;;;0.13;0.00;;;;;;;10.64;81.08;96061.91;5082090;28;20056;-62
2022/02/17 04:14:19;;;;;;;0.00;0.00;;;;;;;10.71;80.45;96058.03;5065023;28;20094;-63
2022/02/17 04:16:51;;;;;;;0.00;0.00;;;;;;;10.67;81.14;96060.53;5083906;28;20052;-63
2022/02/17 04:19:26;;;;;;;0.00;0.00;;;;;;;10.62;82.04;96084.94;5084610;28;20138;-62
2022/02/17 04:22:16;;;;;;;0.35;0.35;;;;;;;10.54;83.63;96092.56;5080647;28;20059;-62
2022/02/17 04:24:47;;;;;;;;;;;;;;;10.28;85.47;96108.16;5074388;28;20053;-62
2022/02/17 04:27:19;;;;;;;0.30;0.00;;;;;;;10.15;86.74;96091.47;5082389;28;20433;-63
2022/02/17 04:30:03;;;;;;;0.08;0.08;;;;;;;9.97;87.18;96075.91;5086648;28;20054;-62
2022/02/17 04:32:29;;;;;;;0.00;0.00;;;;;;;10.01;86.11;96107.53;5076279;28;20101;-63
2022/02/17 04:34:57;;;;;;;0.77;0.20;;;;;;;9.97;86.91;96098.34;5064460;28;20041;-68
2022/02/17 04:37:24;;;;;;;1.30;0.08;;;;;;;9.98;86.88;96101.84;5071311;28;20113;-67
2022/02/17 04:39:51;;;;;;;0.05;0.00;;;;;;;9.93;87.75;96108.09;5076377;28;20102;-67
2022/02/17 04:42:19;;;;;;;0.03;0.03;;;;;;;9.95;87.48;96113.25;5067063;28;20527;-68
2022/02/17 04:44:56;;;;;;;0.00;0.00;;;;;;;9.87;88.20;96136.25;5084849;28;20035;-68
2022/02/17 04:47:24;;;;;;;0.30;0.00;;;;;;;10.03;86.55;96126.19;5083262;28;20044;-68
2022/02/17 04:49:51;;;;;;;0.10;0.10;;;;;;;10.05;86.23;96105.06;5081430;28;20093;-67
2022/02/17 04:52:19;;;;;;;0.05;0.00;;;;;;;9.97;86.71;96119.97;5091623;28;20036;-68
2022/02/17 04:54:47;;;;;;;0.00;0.00;;;;;;;9.93;86.95;96110.81;5083986;28;20074;-68
2022/02/17 04:57:14;;;;;;;0.55;0.10;;;;;;;9.99;85.94;96125.91;5084512;28;20068;-67
2022/02/17 04:59:41;;;;;;;0.08;0.00;;;;;;;9.97;87.06;96119.16;5073866;28;20045;-67
2022/02/17 05:02:08;;;;;;;2.30;0.57;;;;;;;9.86;87.69;96129.22;5080336;28;20040;-68
2022/02/17 05:04:37;;;;;;;0.00;0.00;;;;;;;9.98;86.17;96124.28;5075488;28;20047;-67
2022/02/17 05:07:08;;;;;;;0.28;0.10;;;;;;;9.96;86.70;96150.81;5063416;28;20060;-67
2022/02/17 05:09:35;;;;;;;0.20;0.08;;;;;;;9.93;87.45;96148.66;5080952;28;20048;-68
2022/02/17 05:12:02;;;;;;;0.00;0.00;;;;;;;9.86;87.76;96151.69;5085391;28;20044;-67
2022/02/17 05:14:31;;;;;;;0.50;0.00;;;;;;;9.87;86.42;96157.88;5068335;28;20059;-68
2022/02/17 05:16:58;;;;;;;0.25;0.10;;;;;;;9.96;85.61;96191.38;5073365;28;20423;-67
2022/02/17 05:19:28;;;;;;;0.25;0.20;;;;;;;10.00;84.63;96181.59;5063385;28;20063;-67
2022/02/17 05:22:13;;;;;;;0.13;0.10;;;;;;;9.96;84.70;96214.91;5084276;28;20174;-68
2022/02/17 05:24:42;;;;;;;0.32;0.13;;;;;;;9.84;86.27;96224.13;5085721;28;20469;-68
2022/02/17 05:27:34;;;;;;;0.15;0.00;;;;;;;9.71;87.58;96240.91;5083348;28;20050;-68
2022/02/17 05:30:42;;;;;;;0.17;0.13;;;;;;;9.54;89.02;96276.38;5040233;28;20638;-68
2022/02/17 05:33:28;;;;;;;0.60;0.28;;;;;;;9.17;89.75;96248.56;5084073;28;20104;-67
2022/02/17 05:36:00;;;;;;;1.10;0.40;;;;;;;8.95;90.57;96252.31;5073790;28;20306;-67
2022/02/17 05:38:46;;;;;;;2.47;0.30;;;;;;;8.79;90.52;96238.84;5081069;28;20141;-68
2022/02/17 05:41:15;;;;;;;4.47;0.50;;;;;;;8.77;90.72;96259.88;5072547;28;20048;-67
2022/02/17 05:43:43;;;;;;;1.08;0.50;;;;;;;8.85;89.71;96264.75;5078124;28;20662;-68
2022/02/17 05:46:10;;;;;;;1.00;0.20;;;;;;;9.14;86.97;96282.31;5084473;28;20044;-67
2022/02/17 05:48:37;;;;;;;2.80;0.30;;;;;;;8.99;89.00;96288.50;5086516;28;20123;-67
2022/02/17 05:51:04;;;;;;;1.52;0.32;;;;;;;9.21;84.25;96282.84;5071999;28;20492;-67
2022/02/17 05:53:31;;;;;;;1.30;0.50;;;;;;;9.34;82.79;96278.81;5092547;28;20036;-67
2022/02/17 05:55:57;;;;;;;1.42;0.50;;;;;;;9.44;80.43;96296.91;5086836;28;20058;-67
2022/02/17 05:58:24;;;;;;;2.88;0.60;;;;;;;9.57;79.87;96275.81;5079685;28;20032;-67
2022/02/17 06:00:51;;;;;;;3.40;0.60;;;;;;;9.68;78.25;96299.03;5076133;28;20052;-67
2022/02/17 06:03:18;;;;;;;7.95;0.95;;;;;;;9.72;77.79;96310.09;5086968;28;20081;-67
2022/02/17 06:05:44;;;;;;;2.75;0.55;;;;;;;9.68;78.01;96306.34;5086932;28;20113;-67
2022/02/17 06:08:11;;;;;;;1.92;0.47;;;;;;;9.55;78.95;96311.22;5076972;28;20041;-67
2022/02/17 06:10:37;;;;;;;5.82;0.65;;;;;;;9.53;78.84;96317.97;5086574;28;20040;-67
2022/02/17 06:13:04;;;;;;;1.85;0.57;;;;;;;9.48;78.69;96316.09;5080397;28;20044;-67
2022/02/17 06:15:32;;;;;;;4.07;0.88;;;;;;;9.47;77.39;96323.38;5086068;28;20570;-67
2022/02/17 06:17:59;;;;;;;4.45;0.82;;;;;;;9.41;78.02;96335.28;5086585;28;20691;-68
2022/02/17 06:20:26;;;;;;;2.83;1.10;;;;;;;9.45;76.28;96311.22;5086140;28;20040;-66
2022/02/17 06:22:54;;;;;;;5.60;1.10;;;;;;;9.39;76.76;96339.34;5085830;28;20132;-67
2022/02/17 06:25:20;;;;;;;3.95;0.90;;;;;;;9.35;77.49;96339.88;5086056;28;20049;-67
2022/02/17 06:27:48;;;;;;;7.47;1.58;;;;;;;9.30;77.70;96312.03;5085737;28;20089;-67
2022/02/17 06:30:16;;;;;;;2.28;0.50;;;;;;;9.26;77.78;96324.47;5079396;28;20082;-67
2022/02/17 06:32:54;;;;;;;7.05;1.40;;;;;;;9.21;77.66;96366.59;5086911;28;20789;-67
2022/02/17 06:35:30;;;;;;;4.75;1.27;;;;;;;9.14;78.36;96370.63;5085239;28;20071;-67
2022/02/17 06:38:02;;;;;;;8.45;1.10;;;;;;;9.00;79.55;96368.47;5086323;28;20116;-67
2022/02/17 06:40:30;;;;;;;4.07;1.27;;;;;;;8.91;80.23;96387.03;5082432;28;20044;-67
2022/02/17 06:43:06;;;;;;;7.70;1.05;;;;;;;8.76;81.16;96392.38;5073394;28;20470;-67
2022/02/17 06:45:34;;;;;;;9.32;1.23;;;;;;;8.79;80.19;96402.66;5086197;28;20763;-67
2022/02/17 06:48:03;;;;;;;3.17;1.00;;;;;;;8.96;77.18;96381.66;5085319;28;20036;-67
2022/02/17 06:50:30;;;;;;;1.98;0.85;;;;;;;9.01;77.53;96394.38;5084623;28;20048;-67
2022/02/17 06:52:58;;;;;;;6.50;0.88;;;;;;;9.11;76.60;96402.47;5090626;28;20044;-67
2022/02/17 06:55:25;;;;;;;5.97;1.08;;;;;;;9.22;75.42;96397.91;5085176;28;20040;-67
2022/02/17 06:57:53;;;;;;;5.07;1.30;;;;;;;9.27;74.32;96405.22;5075146;28;20054;-67
2022/02/17 07:00:20;;;;;;;8.20;1.40;;;;;;;9.26;73.49;96435.22;5080054;28;20515;-67
2022/02/17 07:02:53;;;;;;;3.72;0.90;;;;;;;9.23;73.57;96450.06;5091298;28;20051;-67
2022/02/17 07:05:22;;;;;;;5.68;0.90;;;;;;;9.23;73.41;96441.94;5088701;28;20039;-67
2022/02/17 07:07:49;;;;;;;5.25;1.40;;;;;;;9.12;73.27;96438.41;5087859;28;20667;-67
2022/02/17 07:10:54;;;;;;;9.60;1.45;;;;;;;9.13;72.96;96431.94;5087073;28;20077;-68
2022/02/17 07:13:10;;;;;;;8.70;1.40;;;;;;;9.10;72.75;96443.25;5089643;28;20575;-67
2022/02/17 07:15:36;;;;;;;9.48;2.08;;;;;;;9.15;73.18;96453.28;5083999;28;20067;-67
2022/02/17 07:18:04;;;;;;;5.55;1.70;;;;;;;9.22;72.78;96449.22;5083903;28;20040;-67
2022/02/17 07:20:31;;;;;;;7.90;1.25;;;;;;;9.20;73.33;96455.97;5075065;28;20040;-67
2022/02/17 07:22:58;;;;;;;6.30;1.38;;;;;;;9.27;72.64;96470.06;5081858;28;20473;-66
2022/02/17 07:25:25;;;;;;;7.03;1.33;;;;;;;9.30;71.44;96436.28;5084840;28;20051;-66
2022/02/17 07:27:52;;;;;;;5.85;1.20;;;;;;;9.32;72.07;96432.25;5080766;28;20561;-66
2022/02/17 07:30:18;;;;;;;4.78;1.42;;;;;;;9.39;70.05;96444.69;5080669;28;20052;-67
2022/02/17 07:32:45;;;;;;;3.95;0.68;;;;;;;9.44;69.67;96450.09;5085972;28;20125;-67
2022/02/17 07:35:12;;;;;;;4.65;0.77;;;;;;;9.42;70.47;96466.59;5084411;28;20048;-67
2022/02/17 07:37:40;;;;;;;3.25;1.15;;;;;;;9.37;71.91;96461.19;5083452;28;20048;-68
2022/02/17 07:40:11;;;;;;;7.93;1.20;;;;;;;9.36;70.22;96463.06;5077941;28;20053;-67
2022/02/17 07:42:38;;;;;;;9.45;1.17;;;;;;;9.49;69.64;96477.97;5084574;28;20046;-67
2022/02/17 07:45:05;;;;;;;8.52;0.93;;;;;;;9.65;69.17;96471.78;5084906;28;20081;-67
2022/02/17 07:47:32;;;;;;;5.60;1.42;;;;;;;9.72;68.68;96497.44;5083872;28;20044;-67
2022/02/17 07:49:59;;;;;;;11.60;2.75;;;;;;;9.66;70.13;96467.97;5080964;28;20043;-68
2022/02/17 07:52:26;;;;;;;8.30;1.30;;;;;;;9.72;67.55;96481.22;5090314;28;20066;-63
2022/02/17 07:54:53;;;;;;;9.20;1.27;;;;;;;9.92;69.32;96473.41;5090437;28;20044;-61
2022/02/17 07:57:20;;;;;;;10.98;1.95;;;;;;;9.89;68.57;96472.84;5080683;28;20050;-59
2022/02/17 07:59:47;;;;;;;7.03;1.10;;;;;;;10.05;68.16;96470.16;5083233;28;20129;-61
2022/02/17 08:02:15;;;;;;;6.65;1.52;;;;;;;10.02;67.68;96468.00;5084270;28;20526;-62
2022/02/17 08:04:42;;;;;;;7.32;1.30;;;;;;;9.89;68.03;96510.72;5080803;28;20051;-64
2022/02/17 08:07:09;;;;;;;7.80;1.40;;;;;;;9.95;66.79;96538.56;5082714;28;20040;-65
2022/02/17 08:09:38;;;;;;;7.43;1.25;;;;;;;9.91;66.33;96515.84;5078957;28;20447;-66
2022/02/17 08:12:05;;;;;;;4.88;1.08;;;;;;;9.79;67.11;96526.94;5083904;28;20048;-66
2022/02/17 08:14:32;;;;;;;5.95;0.85;;;;;;;9.83;67.84;96513.69;5081657;28;20108;-67
2022/02/17 08:16:59;;;;;;;6.43;1.10;;;;;;;9.94;66.56;96518.03;5080904;28;20703;-67
2022/02/17 08:19:25;;;;;;;7.13;1.05;;;;;;;9.82;66.08;96531.81;5082896;28;20044;-67
2022/02/17 08:21:52;;;;;;;7.28;1.30;;;;;;;9.67;67.30;96556.09;5079691;28;20460;-68
2022/02/17 08:24:20;;;;;;;6.90;1.83;;;;;;;9.67;66.92;96535.28;5081097;28;20527;-67
2022/02/17 08:26:46;;;;;;;4.95;1.00;;;;;;;9.70;66.41;96548.25;5084352;28;20052;-68
2022/02/17 08:29:13;;;;;;;9.75;1.40;;;;;;;9.70;66.47;96537.44;5076726;28;20041;-67
2022/02/17 08:31:42;;;;;;;8.27;1.63;;;;;;;9.62;65.94;96565.00;5082018;28;20122;-65
2022/02/17 08:34:08;;;;;;;9.68;1.48;;;;;;;9.46;62.07;96591.97;5088737;28;20050;-66
2022/02/17 08:36:35;;;;;;;6.00;1.38;;;;;;;9.46;63.60;96593.84;5087358;28;20050;-66
2022/02/17 08:39:04;;;;;;;8.75;1.52;;;;;;;9.50;61.78;96624.69;5094897;28;20112;-66
2022/02/17 08:41:31;;;;;;;3.45;1.17;;;;;;;9.48;61.16;96611.44;5085488;28;20043;-66
2022/02/17 08:43:58;;;;;;;12.77;2.17;;;;;;;9.45;60.28;96584.13;5084102;28;20040;-66
2022/02/17 08:46:26;;;;;;;11.45;1.92;;;;;;;9.46;61.26;96602.78;5076731;28;20048;-65
2022/02/17 08:48:53;;;;;;;9.35;2.05;;;;;;;9.45;61.24;96628.19;5077671;28;20044;-66
2022/02/17 08:51:22;;;;;;;11.20;1.75;;;;;;;9.54;60.85;96609.56;5103324;28;20043;-66
2022/02/17 08:53:49;;;;;;;9.60;2.08;;;;;;;9.38;61.49;96619.50;5103307;28;20037;-66
2022/02/17 08:56:15;;;;;;;10.40;1.92;;;;;;;9.28;62.34;96638.38;5081843;28;20685;-65
2022/02/17 08:58:42;;;;;;;11.70;2.25;;;;;;;9.19;62.06;96617.25;5083072;28;20067;-64
2022/02/17 09:01:10;;;;;;;13.70;1.98;;;;;;;9.20;62.58;96618.03;5070471;28;20048;-65
2022/02/17 09:03:37;;;;;;;9.80;1.85;;;;;;;9.45;61.99;96630.06;5068692;28;20047;-68
2022/02/17 09:06:03;;;;;;;11.07;1.73;;;;;;;9.50;62.84;96628.19;5082117;28;20064;-67
2022/02/17 09:08:47;;;;;;;10.88;3.00;;;;;;;9.42;61.22;96655.72;5075297;28;20040;-66
2022/02/17 09:11:14;;;;;;;9.25;1.92;;;;;;;9.40;61.90;96674.06;5085095;28;20056;-66
2022/02/17 09:13:41;;;;;;;13.57;1.80;;;;;;;9.27;61.26;96644.81;5080742;28;20119;-67
2022/02/17 09:16:09;;;;;;;11.38;2.33;;;;;;;9.11;60.71;96675.25;5078847;28;20123;-67
2022/02/17 09:18:37;;;;;;;11.55;2.45;;;;;;;9.11;61.07;96659.03;5083223;28;20040;-66
2022/02/17 09:21:03;;;;;;;16.88;2.72;;;;;;;9.05;61.10;96665.50;5082935;28;20055;-66
2022/02/17 09:23:34;;;;;;;13.15;2.58;;;;;;;8.95;62.47;96670.81;5084282;28;20051;-66
2022/02/17 09:26:00;;;;;;;15.00;2.25;;;;;;;8.93;62.97;96675.66;5086471;28;20040;-67
2022/02/17 09:28:27;;;;;;;12.68;2.20;;;;;;;8.83;62.98;96673.69;5083043;28;20044;-65
2022/02/17 09:30:54;;;;;;;13.82;1.75;;;;;;;8.80;64.81;96685.00;5088900;28;20043;-66
2022/02/17 09:33:20;;;;;;;12.75;2.30;;;;;;;8.53;68.81;96696.66;5085158;28;20044;-64
2022/02/17 09:35:47;;;;;;;14.48;2.25;;;;;;;7.91;71.12;96689.50;5082156;28;20032;-65
2022/02/17 09:38:15;;;;;;;10.70;1.85;;;;;;;7.89;73.60;96698.91;5080331;28;20123;-64
2022/02/17 09:40:43;;;;;;;11.70;1.52;;;;;;;7.82;72.70;96688.31;5087351;28;20044;-66
2022/02/17 09:43:10;;;;;;;11.13;2.30;;;;;;;7.83;72.96;96684.56;5067413;28;20474;-65
2022/02/17 09:45:43;;;;;;;14.10;2.00;;;;;;;7.80;72.14;96704.75;5086409;28;20634;-66
2022/02/17 09:48:13;;;;;;;13.00;2.08;;;;;;;7.95;73.87;96706.00;5088531;28;20062;-65
2022/02/17 09:50:39;;;;;;;11.07;1.85;;;;;;;7.97;71.39;96701.19;5088328;28;20119;-66
2022/02/17 09:53:08;;;;;;;15.82;3.60;;;;;;;8.10;68.02;96715.34;5086187;28;20062;-64
2022/02/17 09:55:34;;;;;;;11.60;2.50;;;;;;;8.19;67.67;96705.72;5078646;28;20059;-67
2022/02/17 09:58:01;;;;;;;11.57;2.35;;;;;;;8.34;67.29;96721.25;5088610;28;20047;-67
2022/02/17 10:00:28;;;;;;;18.60;3.03;;;;;;;8.58;66.65;96699.38;5086828;28;20047;-68
2022/02/17 10:03:19;;;;;;;13.82;2.90;;;;;;;8.56;66.47;96715.03;5083179;28;20040;-63
2022/02/17 10:06:03;;;;;;;8.27;1.58;;;;;;;8.42;67.58;96753.19;5094022;28;20495;-66
2022/02/17 10:08:36;;;;;;;19.02;3.58;;;;;;;7.82;71.35;96742.22;5102999;28;20581;-66
2022/02/17 10:11:05;;;;;;;14.10;3.80;;;;;;;7.57;73.42;96724.66;5102224;28;20064;-66
2022/02/17 10:13:32;;;;;;;9.43;1.45;;;;;;;7.31;74.99;96762.00;5095987;28;20039;-65
2022/02/17 10:16:00;;;;;;;11.60;3.05;;;;;;;7.16;76.93;96773.34;5081768;28;20114;-67
2022/02/17 10:18:30;;;;;;;7.32;1.98;;;;;;;7.19;75.69;96759.38;5084669;28;20044;-64
2022/02/17 10:21:08;;;;;;;14.00;2.33;;;;;;;7.25;76.36;96757.56;5083766;28;20111;-66
2022/02/17 10:23:53;;;;;;;13.20;2.88;;;;;;;7.62;75.83;96759.75;5097738;28;20059;-66
2022/02/17 10:26:23;;;;;;;9.07;2.28;;;;;;;7.90;74.44;96757.16;5086256;28;20039;-64
2022/02/17 10:28:59;;;;;;;9.50;2.28;;;;;;;8.02;73.73;96746.22;5089634;28;20067;-65
2022/02/17 10:31:37;;;;;;;9.68;1.60;;;;;;;8.19;74.29;96749.69;5076077;28;20052;-65
2022/02/17 10:34:05;;;;;;;10.02;1.83;;;;;;;8.28;69.76;96741.13;5071616;28;20044;-67
2022/02/17 10:36:38;;;;;;;12.25;1.65;;;;;;;8.35;70.07;96751.72;5080246;28;20040;-67
2022/02/17 10:39:09;;;;;;;10.00;1.67;;;;;;;8.41;70.05;96745.34;5092370;28;20059;-67
2022/02/17 10:41:51;;;;;;;11.60;2.97;;;;;;;8.49;70.22;96752.97;5072728;28;20544;-66
2022/02/17 10:44:29;;;;;;;6.13;1.52;;;;;;;8.51;67.48;96755.44;5084683;28;20427;-67
2022/02/17 10:47:09;;;;;;;12.27;2.25;;;;;;;8.60;65.66;96772.81;5084740;28;20410;-66
2022/02/17 10:49:42;;;;;;;8.13;1.92;;;;;;;8.77;65.98;96761.13;5076484;28;20054;-66
2022/02/17 10:52:10;;;;;;;10.73;2.08;;;;;;;8.92;65.58;96771.25;5083306;28;20050;-66
2022/02/17 10:54:37;;;;;;;11.07;2.17;;;;;;;9.04;65.13;96754.88;5084146;28;20055;-67
2022/02/17 10:57:05;;;;;;;8.13;1.45;;;;;;;9.06;64.51;96768.91;5085724;28;20036;-66
2022/02/17 11:00:02;;;;;;;7.85;1.65;;;;;;;8.97;63.67;96782.09;5085097;28;20108;-66
2022/02/17 11:02:29;;;;;;;9.68;1.58;;;;;;;9.16;63.03;96766.31;5085621;28;20044;-66
2022/02/17 11:04:55;;;;;;;10.90;1.75;;;;;;;9.22;63.31;96805.00;5084880;28;20044;-67
2022/02/17 11:07:23;;;;;;;5.68;1.25;;;;;;;9.22;61.07;96794.97;5081816;28;20048;-65
2022/02/17 11:09:50;;;;;;;6.53;2.00;;;;;;;9.22;59.68;96800.38;5075585;28;20051;-65
2022/02/17 11:12:16;;;;;;;7.78;1.55;;;;;;;9.24;59.65;96784.75;5089780;28;20062;-65
2022/02/17 11:14:49;;;;;;;9.30;1.55;;;;;;;9.35;57.95;96793.75;5094263;28;20059;-64
2022/02/17 11:17:16;;;;;;;7.85;1.50;;;;;;;9.34;57.19;96777.78;5073144;28;20051;-65
2022/02/17 11:19:52;;;;;;;7.15;1.80;;;;;;;9.34;58.44;96780.50;5083494;28;20048;-67
2022/02/17 11:22:20;;;;;;;11.32;1.65;;;;;;;9.40;60.89;96779.44;5084243;28;20101;-64
2022/02/17 11:24:54;;;;;;;9.10;1.80;;;;;;;9.53;57.54;96793.59;5082320;28;20048;-65
2022/02/17 11:27:23;;;;;;;7.93;2.33;;;;;;;9.65;58.69;96802.31;5080617;28;20629;-65
2022/02/17 11:29:50;;;;;;;11.27;2.00;;;;;;;9.57;56.06;96829.84;5075467;28;20051;-65
2022/02/17 11:32:22;;;;;;;7.22;1.45;;;;;;;9.70;56.72;96832.09;5087773;28;20743;-65
2022/02/17 11:34:55;;;;;;;12.38;2.42;;;;;;;9.76;54.91;96814.84;5089456;28;20059;-66
2022/02/17 11:37:30;;;;;;;7.07;1.30;;;;;;;9.86;55.19;96805.16;5084554;28;20472;-65
2022/02/17 11:40:02;;;;;;;10.48;2.20;;;;;;;9.93;54.26;96807.63;5083638;28;20074;-65
2022/02/17 11:42:32;;;;;;;18.33;2.78;;;;;;;10.09;55.47;96824.75;5084987;28;20118;-65
2022/02/17 11:45:09;;;;;;;8.98;2.05;;;;;;;10.03;52.46;96823.94;5078680;28;20071;-65
2022/02/17 11:47:59;;;;;;;11.15;2.13;;;;;;;10.08;53.87;96802.31;5087354;28;20040;-65
2022/02/17 11:50:43;;;;;;;9.40;1.27;;;;;;;10.18;52.26;96825.09;5095518;28;20123;-65